createdAt,value
2022-09-25T00:01:11.106Z,101496.13
2022-09-25T00:03:41.541Z,101495.28
2022-09-25T00:06:10.375Z,101492.31
2022-09-25T00:08:38.387Z,101492.03
2022-09-25T00:11:08.911Z,101495.47
2022-09-25T00:13:37.570Z,101497.28
2022-09-25T00:16:06.010Z,101498.19
2022-09-25T00:18:51.158Z,101495.75
2022-09-25T00:21:20.354Z,101492.31
2022-09-25T00:23:48.877Z,101491.56
2022-09-25T00:26:18.111Z,101498.56
2022-09-25T00:28:45.911Z,101492.72
2022-09-25T00:31:21.395Z,101489.31
2022-09-25T00:33:49.244Z,101496.34
2022-09-25T00:36:17.052Z,101495.63
2022-09-25T00:38:48.091Z,101495.72
2022-09-25T00:41:17.532Z,101494.00
2022-09-25T00:43:48.955Z,101494.94
2022-09-25T00:46:21.849Z,101488.97
2022-09-25T00:48:52.849Z,101493.28
2022-09-25T00:51:24.396Z,101492.34
2022-09-25T00:53:53.694Z,101487.09
2022-09-25T00:56:21.759Z,101483.63
2022-09-25T00:58:49.608Z,101482.69
2022-09-25T01:01:17.819Z,101480.91
2022-09-25T01:03:46.491Z,101479.97
2022-09-25T01:06:15.951Z,101481.75
2022-09-25T01:08:47.193Z,101485.41
2022-09-25T01:11:17.666Z,101487.28
2022-09-25T01:13:45.853Z,101485.25
2022-09-25T01:16:17.249Z,101481.59
2022-09-25T01:19:03.327Z,101491.44
2022-09-25T01:21:40.121Z,101487.22
2022-09-25T01:24:32.359Z,101488.25
2022-09-25T01:27:26.323Z,101489.38
2022-09-25T01:30:03.098Z,101485.09
2022-09-25T01:32:36.309Z,101486.09
2022-09-25T01:35:09.327Z,101488.00
2022-09-25T01:37:44.918Z,101490.72
2022-09-25T01:40:23.050Z,101490.72
2022-09-25T01:42:56.479Z,101490.91
2022-09-25T01:45:30.753Z,101495.28
2022-09-25T01:48:01.743Z,101484.91
2022-09-25T01:50:35.795Z,101491.19
2022-09-25T01:53:08.767Z,101480.88
2022-09-25T01:55:41.783Z,101487.91
2022-09-25T01:58:15.464Z,101474.88
2022-09-25T02:00:51.010Z,101482.84
2022-09-25T02:03:25.927Z,101482.09
2022-09-25T02:05:56.667Z,101471.78
2022-09-25T02:08:28.589Z,101473.69
2022-09-25T02:11:02.249Z,101468.44
2022-09-25T02:13:37.252Z,101462.53
2022-09-25T02:16:12.700Z,101468.63
2022-09-25T02:18:58.316Z,101475.53
2022-09-25T02:21:30.454Z,101466.00
2022-09-25T02:24:05.944Z,101460.78
2022-09-25T02:26:36.127Z,101462.53
2022-09-25T02:29:04.095Z,101459.94
2022-09-25T02:31:39.033Z,101464.44
2022-09-25T02:34:12.156Z,101452.44
2022-09-25T02:36:43.220Z,101448.25
2022-09-25T02:39:13.300Z,101458.06
2022-09-25T02:42:01.552Z,101443.38
2022-09-25T02:44:37.890Z,101446.94
2022-09-25T02:47:18.612Z,101453.94
2022-09-25T02:49:56.494Z,101454.03
2022-09-25T02:52:33.572Z,101453.09
2022-09-25T02:55:08.143Z,101452.28
2022-09-25T02:57:43.449Z,101452.28
2022-09-25T03:00:13.434Z,101448.81
2022-09-25T03:02:49.646Z,101449.19
2022-09-25T03:05:20.827Z,101447.69
2022-09-25T03:08:06.402Z,101438.88
2022-09-25T03:10:37.613Z,101439.75
2022-09-25T03:13:16.971Z,101447.59
2022-09-25T03:15:48.140Z,101441.50
2022-09-25T03:18:17.949Z,101442.44
2022-09-25T03:20:46.179Z,101444.31
2022-09-25T03:23:14.160Z,101432.34
2022-09-25T03:25:47.408Z,101438.50
2022-09-25T03:28:17.804Z,101431.69
2022-09-25T03:30:45.784Z,101428.97
2022-09-25T03:33:14.471Z,101434.22
2022-09-25T03:35:43.640Z,101435.97
2022-09-25T03:38:12.537Z,101432.44
2022-09-25T03:40:41.428Z,101431.59
2022-09-25T03:45:35.926Z,101421.13
2022-09-25T03:48:03.731Z,101418.31
2022-09-25T03:50:31.643Z,101411.41
2022-09-25T03:53:00.846Z,101411.31
2022-09-25T03:55:28.627Z,101409.63
2022-09-25T03:57:56.434Z,101415.88
2022-09-25T04:00:24.966Z,101417.75
2022-09-25T04:02:52.886Z,101410.84
2022-09-25T04:05:21.414Z,101411.78
2022-09-25T04:07:49.222Z,101409.97
2022-09-25T04:10:18.420Z,101411.78
2022-09-25T04:12:46.323Z,101414.41
2022-09-25T04:15:15.335Z,101414.22
2022-09-25T04:17:43.131Z,101408.97
2022-09-25T04:20:11.176Z,101413.38
2022-09-25T04:22:38.996Z,101415.22
2022-09-25T04:25:07.631Z,101410.75
2022-09-25T04:27:37.824Z,101413.38
2022-09-25T04:30:06.877Z,101417.03
2022-09-25T04:32:52.061Z,101417.19
2022-09-25T04:35:19.858Z,101410.38
2022-09-25T04:37:47.676Z,101409.63
2022-09-25T04:40:15.756Z,101409.63
2022-09-25T04:42:44.948Z,101402.72
2022-09-25T04:45:12.895Z,101398.31
2022-09-25T04:47:40.708Z,101396.63
2022-09-25T04:50:09.372Z,101394.97
2022-09-25T04:52:37.168Z,101401.97
2022-09-25T04:55:05.417Z,101399.53
2022-09-25T04:57:57.111Z,101393.44
2022-09-25T05:00:24.231Z,101385.78
2022-09-25T05:02:51.918Z,101396.75
2022-09-25T05:05:20.302Z,101398.31
2022-09-25T05:07:55.233Z,101393.06
2022-09-25T05:10:23.658Z,101396.75
2022-09-25T05:12:56.366Z,101401.81
2022-09-25T05:15:25.747Z,101401.00
2022-09-25T05:18:01.337Z,101401.91
2022-09-25T05:20:29.504Z,101397.53
2022-09-25T05:22:58.251Z,101399.97
2022-09-25T05:25:26.485Z,101392.91
2022-09-25T05:27:55.889Z,101392.81
2022-09-25T05:30:25.532Z,101387.66
2022-09-25T05:32:54.180Z,101388.38
2022-09-25T05:35:24.253Z,101383.16
2022-09-25T05:37:52.426Z,101383.81
2022-09-25T05:40:23.777Z,101381.97
2022-09-25T05:42:52.556Z,101386.16
2022-09-25T05:45:23.105Z,101386.16
2022-09-25T05:48:01.322Z,101375.88
2022-09-25T05:50:29.496Z,101375.78
2022-09-25T05:52:58.019Z,101380.84
2022-09-25T05:55:26.367Z,101373.66
2022-09-25T05:57:54.159Z,101365.72
2022-09-25T06:00:22.120Z,101364.75
2022-09-25T06:02:54.102Z,101363.81
2022-09-25T06:05:21.940Z,101360.25
2022-09-25T06:07:54.194Z,101367.19
2022-09-25T06:10:22.132Z,101364.56
2022-09-25T06:12:49.932Z,101363.72
2022-09-25T06:15:17.768Z,101363.72
2022-09-25T06:17:45.555Z,101370.00
2022-09-25T06:20:16.295Z,101364.66
2022-09-25T06:22:44.952Z,101377.75
2022-09-25T06:25:15.479Z,101369.06
2022-09-25T06:27:43.283Z,101367.28
2022-09-25T06:30:11.916Z,101368.19
2022-09-25T06:32:39.764Z,101369.91
2022-09-25T06:35:07.884Z,101368.00
2022-09-25T06:37:37.107Z,101367.09
2022-09-25T06:40:05.418Z,101373.06
2022-09-25T06:42:35.176Z,101364.28
2022-09-25T06:45:03.067Z,101367.72
2022-09-25T06:47:32.828Z,101367.63
2022-09-25T06:50:01.169Z,101370.16
2022-09-25T06:52:29.009Z,101361.28
2022-09-25T06:54:58.336Z,101373.25
2022-09-25T06:57:26.146Z,101369.41
2022-09-25T06:59:53.951Z,101364.16
2022-09-25T07:02:39.208Z,101368.19
2022-09-25T07:05:07.587Z,101362.69
2022-09-25T07:07:36.976Z,101357.16
2022-09-25T07:10:07.234Z,101367.34
2022-09-25T07:12:35.039Z,101360.13
2022-09-25T07:15:02.883Z,101358.06
2022-09-25T07:17:30.689Z,101364.66
2022-09-25T07:19:58.488Z,101359.34
2022-09-25T07:22:26.296Z,101360.63
2022-09-25T07:24:54.100Z,101355.94
2022-09-25T07:27:23.274Z,101356.50
2022-09-25T07:29:52.463Z,101356.19
2022-09-25T07:32:20.674Z,101353.28
2022-09-25T07:34:50.216Z,101351.28
2022-09-25T07:37:18.609Z,101356.13
2022-09-25T07:39:46.417Z,101356.56
2022-09-25T07:42:14.402Z,101352.81
2022-09-25T07:44:48.100Z,101357.53
2022-09-25T07:47:17.267Z,101355.38
2022-09-25T07:49:45.059Z,101348.75
2022-09-25T07:52:13.928Z,101355.25
2022-09-25T07:54:43.152Z,101356.69
2022-09-25T07:57:11.052Z,101350.19
2022-09-25T07:59:38.850Z,101354.06
2022-09-25T08:02:08.134Z,101350.06
2022-09-25T08:04:35.931Z,101347.25
2022-09-25T08:07:03.852Z,101346.22
2022-09-25T08:09:31.700Z,101337.91
2022-09-25T08:11:59.648Z,101340.34
2022-09-25T08:14:27.533Z,101340.22
2022-09-25T08:16:56.124Z,101346.00
2022-09-25T08:19:27.259Z,101342.13
2022-09-25T08:21:55.035Z,101338.94
2022-09-25T08:24:22.853Z,101330.72
2022-09-25T08:26:51.234Z,101330.63
2022-09-25T08:29:19.360Z,101324.34
2022-09-25T08:31:47.877Z,101321.41
2022-09-25T08:34:39.386Z,101322.84
2022-09-25T08:37:07.715Z,101324.19
2022-09-25T08:39:35.552Z,101320.09
2022-09-25T08:42:03.926Z,101320.47
2022-09-25T08:44:38.026Z,101315.84
2022-09-25T08:47:29.664Z,101313.72
2022-09-25T08:50:04.452Z,101317.72
2022-09-25T08:52:34.949Z,101319.28
2022-09-25T08:55:02.577Z,101315.56
2022-09-25T08:57:35.275Z,101311.78
2022-09-25T09:00:05.812Z,101309.44
2022-09-25T09:02:42.417Z,101308.88
2022-09-25T09:05:18.360Z,101306.78
2022-09-25T09:07:51.127Z,101298.34
2022-09-25T09:10:29.663Z,101299.66
2022-09-25T09:13:02.692Z,101295.63
2022-09-25T09:15:39.913Z,101298.63
2022-09-25T09:18:20.244Z,101292.31
2022-09-25T09:20:53.660Z,101284.19
2022-09-25T09:23:25.394Z,101281.22
2022-09-25T09:26:02.643Z,101277.41
2022-09-25T09:29:03.883Z,101266.03
2022-09-25T09:31:42.634Z,101265.81
2022-09-25T09:37:41.715Z,101252.53
2022-09-25T09:40:24.383Z,101254.94
2022-09-25T09:43:03.809Z,101254.59
2022-09-25T09:45:40.244Z,101257.22
2022-09-25T09:48:17.140Z,101251.25
2022-09-25T09:50:52.774Z,101255.44
2022-09-25T09:53:34.080Z,101252.78
2022-09-25T09:56:10.704Z,101252.44
2022-09-25T09:58:50.282Z,101252.31
2022-09-25T10:01:40.312Z,101248.72
2022-09-25T10:04:12.041Z,101237.97
2022-09-25T10:06:43.428Z,101237.75
2022-09-25T10:09:15.677Z,101234.41
2022-09-25T10:11:46.720Z,101232.34
2022-09-25T10:14:21.061Z,101232.22
2022-09-25T10:16:51.735Z,101229.72
2022-09-25T10:19:22.367Z,101227.22
2022-09-25T10:21:56.333Z,101223.38
2022-09-25T10:24:53.907Z,101224.06
2022-09-25T10:27:28.688Z,101230.91
2022-09-25T10:30:05.120Z,101221.91
2022-09-25T10:32:36.028Z,101222.53
2022-09-25T10:35:04.871Z,101214.63
2022-09-25T10:37:35.945Z,101220.69
2022-09-25T10:40:07.438Z,101222.03
2022-09-25T10:42:42.279Z,101210.66
2022-09-25T10:45:30.581Z,101204.28
2022-09-25T10:48:15.890Z,101197.88
2022-09-25T10:50:44.359Z,101195.13
2022-09-25T10:53:30.597Z,101189.84
2022-09-25T10:56:05.121Z,101187.09
2022-09-25T10:58:39.474Z,101175.56
2022-09-25T11:01:13.615Z,101177.47
2022-09-25T11:03:49.350Z,101175.81
2022-09-25T11:06:21.238Z,101173.19
2022-09-25T11:08:56.367Z,101162.78
2022-09-25T11:11:27.419Z,101164.31
2022-09-25T11:14:01.187Z,101160.75
2022-09-25T11:16:48.678Z,101163.81
2022-09-25T11:19:21.141Z,101155.66
2022-09-25T11:22:00.195Z,101154.59
2022-09-25T11:24:37.534Z,101142.25
2022-09-25T11:27:13.007Z,101147.25
2022-09-25T11:29:54.528Z,101140.06
2022-09-25T11:32:30.404Z,101137.19
2022-09-25T11:35:26.882Z,101129.53
2022-09-25T11:38:05.219Z,101130.50
2022-09-25T11:41:01.450Z,101116.13
2022-09-25T11:43:40.202Z,101112.81
2022-09-25T11:46:20.814Z,101115.06
2022-09-25T11:48:57.523Z,101109.84
2022-09-25T11:51:39.232Z,101110.38
2022-09-25T11:54:33.424Z,101102.28
2022-09-25T11:57:07.642Z,101104.75
2022-09-25T11:59:47.363Z,101095.72
2022-09-25T12:02:29.254Z,101092.09
2022-09-25T12:05:17.810Z,101082.69
2022-09-25T12:08:10.594Z,101079.66
2022-09-25T12:10:49.539Z,101074.13
2022-09-25T12:13:27.981Z,101070.09
2022-09-25T12:16:08.736Z,101069.97
2022-09-25T12:19:00.344Z,101063.84
2022-09-25T12:21:35.192Z,101063.72
2022-09-25T12:24:15.130Z,101058.97
2022-09-25T12:26:51.305Z,101058.28
2022-09-25T12:29:39.983Z,101059.53
2022-09-25T12:32:16.095Z,101053.94
2022-09-25T12:35:13.224Z,101051.03
2022-09-25T12:37:44.569Z,101044.66
2022-09-25T12:40:23.542Z,101051.59
2022-09-25T12:42:58.482Z,101036.03
2022-09-25T12:45:32.829Z,101039.09
2022-09-25T12:48:08.916Z,101032.56
2022-09-25T12:50:45.052Z,101030.19
2022-09-25T12:53:25.411Z,101026.28
2022-09-25T12:55:59.894Z,101021.56
2022-09-25T12:58:42.598Z,101016.88
2022-09-25T13:01:18.630Z,101012.84
2022-09-25T13:03:54.492Z,101009.63
2022-09-25T13:06:35.306Z,101005.19
2022-09-25T13:09:13.703Z,100994.50
2022-09-25T13:11:47.643Z,100998.22
2022-09-25T13:14:27.660Z,100997.53
2022-09-25T13:16:55.659Z,101001.31
2022-09-25T13:19:26.461Z,100996.63
2022-09-25T13:22:03.749Z,100994.38
2022-09-25T13:24:39.332Z,100992.16
2022-09-25T13:27:14.307Z,100985.94
2022-09-25T13:29:42.796Z,100978.72
2022-09-25T13:32:18.993Z,100984.38
2022-09-25T13:34:47.983Z,100975.53
2022-09-25T13:37:17.386Z,100978.56
2022-09-25T13:40:05.427Z,100974.56
2022-09-25T13:42:38.371Z,100972.75
2022-09-25T13:45:27.946Z,100967.47
2022-09-25T13:48:06.865Z,100965.13
2022-09-25T13:50:40.919Z,100972.31
2022-09-25T13:53:25.754Z,100959.53
2022-09-25T13:56:13.950Z,100953.00
2022-09-25T13:59:29.615Z,100943.00
2022-09-25T14:02:00.307Z,100942.19
2022-09-25T14:04:35.171Z,100938.69
2022-09-25T14:07:21.134Z,100927.56
2022-09-25T14:09:54.746Z,100935.63
2022-09-25T14:12:38.438Z,100932.97
2022-09-25T14:15:09.585Z,100929.53
2022-09-25T14:17:38.428Z,100926.19
2022-09-25T14:20:21.911Z,100921.88
2022-09-25T14:22:56.023Z,100914.25
2022-09-25T14:25:33.968Z,100914.91
2022-09-25T14:28:02.607Z,100903.03
2022-09-25T14:30:32.954Z,100899.94
2022-09-25T14:33:21.419Z,100894.22
2022-09-25T14:36:01.693Z,100899.63
2022-09-25T14:38:55.591Z,100897.84
2022-09-25T14:42:01.760Z,100892.97
2022-09-25T14:44:57.544Z,100892.53
2022-09-25T14:47:33.772Z,100885.72
2022-09-25T14:50:02.194Z,100881.44
2022-09-25T14:52:33.237Z,100877.44
2022-09-25T14:55:02.311Z,100877.81
2022-09-25T14:57:34.089Z,100871.03
2022-09-25T15:00:04.396Z,100872.28
2022-09-25T15:02:35.216Z,100861.16
2022-09-25T15:05:18.931Z,100864.06
2022-09-25T15:07:47.738Z,100859.03
2022-09-25T15:10:28.774Z,100862.38
2022-09-25T15:13:07.281Z,100851.97
2022-09-25T15:15:35.913Z,100849.75
2022-09-25T15:18:04.821Z,100851.94
2022-09-25T15:20:34.867Z,100844.16
2022-09-25T15:23:05.155Z,100846.19
2022-09-25T15:25:36.459Z,100844.66
2022-09-25T15:28:08.011Z,100838.38
2022-09-25T15:30:39.920Z,100834.91
2022-09-25T15:33:07.755Z,100838.66
2022-09-25T15:35:35.588Z,100837.09
2022-09-25T15:38:06.673Z,100841.94
2022-09-25T15:40:34.872Z,100831.53
2022-09-25T15:43:02.880Z,100831.06
2022-09-25T15:45:44.699Z,100826.78
2022-09-25T15:48:26.176Z,100820.25
2022-09-25T15:50:54.862Z,100818.81
2022-09-25T15:53:28.827Z,100815.75
2022-09-25T15:56:14.995Z,100820.56
2022-09-25T15:58:49.240Z,100811.28
2022-09-25T16:01:40.344Z,100816.78
2022-09-25T16:04:28.464Z,100818.00
2022-09-25T16:06:56.460Z,100818.66
2022-09-25T16:09:33.090Z,100820.00
2022-09-25T16:12:30.278Z,100816.22
2022-09-25T16:14:59.830Z,100826.00
2022-09-25T16:17:36.664Z,100816.72
2022-09-25T16:20:08.770Z,100811.00
2022-09-25T16:22:42.096Z,100813.88
2022-09-25T16:25:19.867Z,100809.38
2022-09-25T16:27:48.096Z,100797.56
2022-09-25T16:30:20.719Z,100798.78
2022-09-25T16:32:52.813Z,100795.81
2022-09-25T16:35:25.570Z,100786.75
2022-09-25T16:37:54.775Z,100789.88
2022-09-25T16:40:26.016Z,100788.59
2022-09-25T16:42:56.516Z,100782.00
2022-09-25T16:45:27.796Z,100770.22
2022-09-25T16:47:58.511Z,100769.28
2022-09-25T16:50:28.192Z,100773.94
2022-09-25T16:52:56.028Z,100782.31
2022-09-25T16:55:27.450Z,100774.81
2022-09-25T16:57:56.902Z,100769.09
2022-09-25T17:00:26.315Z,100781.63
2022-09-25T17:02:54.949Z,100782.84
2022-09-25T17:05:27.583Z,100784.75
2022-09-25T17:07:56.730Z,100785.94
2022-09-25T17:10:26.340Z,100791.31
2022-09-25T17:12:57.179Z,100782.97
2022-09-25T17:15:29.254Z,100790.97
2022-09-25T17:17:57.065Z,100791.69
2022-09-25T17:20:29.182Z,100785.72
2022-09-25T17:22:56.991Z,100791.09
2022-09-25T17:25:38.313Z,100790.59
2022-09-25T17:28:07.835Z,100789.91
2022-09-25T17:30:36.271Z,100784.88
2022-09-25T17:33:05.967Z,100782.38
2022-09-25T17:35:40.260Z,100779.28
2022-09-25T17:38:08.453Z,100777.00
2022-09-25T17:40:36.755Z,100775.59
2022-09-25T17:43:04.614Z,100772.34
2022-09-25T17:45:37.843Z,100771.03
2022-09-25T17:48:05.740Z,100769.84
2022-09-25T17:50:35.655Z,100768.28
2022-09-25T17:53:09.512Z,100765.91
2022-09-25T17:55:37.641Z,100753.88
2022-09-25T17:58:05.443Z,100755.91
2022-09-25T18:00:33.899Z,100752.66
2022-09-25T18:03:01.758Z,100747.75
2022-09-25T18:05:31.781Z,100746.19
2022-09-25T18:08:00.108Z,100744.75
2022-09-25T18:10:29.626Z,100742.13
2022-09-25T18:12:59.202Z,100749.06
2022-09-25T18:15:28.457Z,100746.78
2022-09-25T18:17:56.923Z,100740.81
2022-09-25T18:20:42.693Z,100736.31
2022-09-25T18:23:10.522Z,100739.03
2022-09-25T18:25:42.067Z,100743.09
2022-09-25T18:28:10.159Z,100733.22
2022-09-25T18:30:38.630Z,100728.91
2022-09-25T18:33:06.488Z,100732.72
2022-09-25T18:35:34.322Z,100723.06
2022-09-25T18:38:02.469Z,100721.38
2022-09-25T18:40:30.448Z,100727.69
2022-09-25T18:43:01.477Z,100721.72
2022-09-25T18:45:29.642Z,100728.78
2022-09-25T18:47:58.042Z,100723.53
2022-09-25T18:50:26.763Z,100718.19
2022-09-25T18:52:54.562Z,100713.88
2022-09-25T18:55:22.363Z,100715.69
2022-09-25T18:57:50.303Z,100710.78
2022-09-25T19:00:20.433Z,100709.09
2022-09-25T19:02:48.294Z,100702.31
2022-09-25T19:05:17.305Z,100700.53
2022-09-25T19:07:45.151Z,100704.94
2022-09-25T19:10:12.996Z,100696.34
2022-09-25T19:12:40.786Z,100694.78
2022-09-25T19:15:10.060Z,100692.28
2022-09-25T19:17:39.243Z,100694.19
2022-09-25T19:20:07.979Z,100694.41
2022-09-25T19:22:37.100Z,100688.47
2022-09-25T19:25:05.837Z,100690.38
2022-09-25T19:27:33.931Z,100680.97
2022-09-25T19:30:01.739Z,100679.53
2022-09-25T19:32:29.610Z,100682.63
2022-09-25T19:34:59.712Z,100682.00
2022-09-25T19:37:29.976Z,100687.34
2022-09-25T19:40:15.533Z,100677.34
2022-09-25T19:42:43.592Z,100672.31
2022-09-25T19:45:12.191Z,100669.72
2022-09-25T19:47:40.104Z,100668.06
2022-09-25T19:50:10.721Z,100660.41
2022-09-25T19:52:38.531Z,100662.94
2022-09-25T19:55:07.133Z,100658.50
2022-09-25T19:57:34.966Z,100651.59
2022-09-25T20:00:03.119Z,100646.47
2022-09-25T20:02:31.044Z,100641.97
2022-09-25T20:04:58.995Z,100640.28
2022-09-25T20:07:28.250Z,100627.06
2022-09-25T20:09:56.048Z,100631.50
2022-09-25T20:12:23.847Z,100629.56
2022-09-25T20:14:51.711Z,100627.06
2022-09-25T20:17:19.652Z,100614.69
2022-09-25T20:19:47.476Z,100620.78
2022-09-25T20:22:15.274Z,100612.19
2022-09-25T20:24:44.553Z,100609.47
2022-09-25T20:27:12.348Z,100612.19
2022-09-25T20:29:40.207Z,100613.03
2022-09-25T20:32:08.020Z,100603.59
2022-09-25T20:34:35.837Z,100600.16
2022-09-25T20:37:03.858Z,100599.44
2022-09-25T20:39:31.653Z,100599.69
2022-09-25T20:42:00.812Z,100600.75
2022-09-25T20:44:28.723Z,100600.25
2022-09-25T20:46:56.538Z,100594.41
2022-09-25T20:49:24.344Z,100603.34
2022-09-25T20:51:52.252Z,100595.13
2022-09-25T20:54:20.149Z,100599.88
2022-09-25T20:56:47.923Z,100592.97
2022-09-25T20:59:18.274Z,100598.31
2022-09-25T21:01:46.257Z,100593.44
2022-09-25T21:04:18.076Z,100591.75
2022-09-25T21:06:46.192Z,100587.81
2022-09-25T21:09:20.006Z,100587.91
2022-09-25T21:11:48.612Z,100590.75
2022-09-25T21:14:20.483Z,100589.44
2022-09-25T21:16:49.380Z,100583.38
2022-09-25T21:19:19.017Z,100582.53
2022-09-25T21:21:47.100Z,100580.97
2022-09-25T21:24:16.691Z,100579.31
2022-09-25T21:26:45.603Z,100577.50
2022-09-25T21:29:15.789Z,100579.44
2022-09-25T21:31:49.743Z,100572.63
2022-09-25T21:34:18.884Z,100570.00
2022-09-25T21:36:46.957Z,100555.25
2022-09-25T21:39:15.790Z,100563.63
2022-09-25T21:41:43.737Z,100559.31
2022-09-25T21:44:14.620Z,100552.91
2022-09-25T21:46:42.621Z,100549.97
2022-09-25T21:49:17.038Z,100554.63
2022-09-25T21:51:46.527Z,100537.72
2022-09-25T21:54:15.762Z,100547.13
2022-09-25T21:56:44.448Z,100544.38
2022-09-25T21:59:12.573Z,100544.28
2022-09-25T22:01:40.954Z,100535.25
2022-09-25T22:04:13.242Z,100539.19
2022-09-25T22:06:43.730Z,100531.81
2022-09-25T22:09:12.706Z,100535.03
2022-09-25T22:11:41.773Z,100532.16
2022-09-25T22:14:15.476Z,100537.28
2022-09-25T22:16:45.369Z,100532.03
2022-09-25T22:19:18.461Z,100531.09
2022-09-25T22:21:47.678Z,100524.19
2022-09-25T22:24:15.726Z,100526.81
2022-09-25T22:26:46.675Z,100518.22
2022-09-25T22:29:15.409Z,100512.28
2022-09-25T22:31:44.359Z,100504.66
2022-09-25T22:34:18.834Z,100500.75
2022-09-25T22:36:47.456Z,100496.69
2022-09-25T22:39:17.731Z,100501.34
2022-09-25T22:41:45.852Z,100494.88
2022-09-25T22:44:13.691Z,100489.41
2022-09-25T22:46:41.511Z,100490.47
2022-09-25T22:49:09.469Z,100489.88
2022-09-25T22:51:38.830Z,100497.13
2022-09-25T22:54:07.094Z,100483.53
2022-09-25T22:56:36.127Z,100478.69
2022-09-25T22:59:06.023Z,100468.31
2022-09-25T23:01:39.561Z,100470.09
2022-09-25T23:04:12.138Z,100481.41
2022-09-25T23:06:41.582Z,100467.25
2022-09-25T23:09:13.662Z,100465.34
2022-09-25T23:11:41.962Z,100462.72
2022-09-25T23:14:14.389Z,100460.81
2022-09-25T23:16:42.228Z,100456.44
2022-09-25T23:19:10.259Z,100454.63
2022-09-25T23:21:38.370Z,100453.59
2022-09-25T23:24:09.690Z,100456.44
2022-09-25T23:26:37.729Z,100456.44
2022-09-25T23:29:05.609Z,100451.09
2022-09-25T23:31:34.304Z,100444.91
2022-09-25T23:34:03.419Z,100444.78
2022-09-25T23:36:32.118Z,100443.81
2022-09-25T23:39:01.792Z,100433.34
2022-09-25T23:41:34.419Z,100437.66
2022-09-25T23:44:03.635Z,100438.34
2022-09-25T23:46:35.272Z,100448.00
2022-09-25T23:49:04.179Z,100432.41
2022-09-25T23:51:32.095Z,100429.91
2022-09-25T23:54:01.858Z,100424.56
2022-09-25T23:56:32.681Z,100421.94
2022-09-25T23:59:02.171Z,100424.44
